createdAt,value
2019-03-04T00:02:24.599Z,43.73
2019-03-04T00:04:59.157Z,44.75
2019-03-04T00:07:33.476Z,44.67
2019-03-04T00:10:07.836Z,44.85
2019-03-04T00:12:42.102Z,43.75
2019-03-04T00:15:16.317Z,44.00
2019-03-04T00:17:50.455Z,43.92
2019-03-04T00:20:24.630Z,44.70
2019-03-04T00:22:58.759Z,44.15
2019-03-04T00:25:33.101Z,44.63
2019-03-04T00:28:07.402Z,44.93
2019-03-04T00:30:41.750Z,45.25
2019-03-04T00:33:16.081Z,45.83
2019-03-04T00:35:51.128Z,45.03
2019-03-04T00:38:25.512Z,45.10
2019-03-04T00:40:59.460Z,44.63
2019-03-04T00:43:33.823Z,44.90
2019-03-04T00:46:08.124Z,45.28
2019-03-04T00:48:43.505Z,44.67
2019-03-04T00:51:17.647Z,45.08
2019-03-04T00:53:52.066Z,42.55
2019-03-04T00:56:26.504Z,44.00
2019-03-04T00:59:01.217Z,44.30
2019-03-04T01:01:36.544Z,43.85
2019-03-04T01:04:11.016Z,44.30
2019-03-04T01:06:45.343Z,43.10
2019-03-04T01:09:20.251Z,44.23
2019-03-04T01:11:54.595Z,46.25
2019-03-04T01:14:29.106Z,44.95
2019-03-04T01:17:03.358Z,43.73
2019-03-04T01:19:37.680Z,44.30
2019-03-04T01:22:12.204Z,43.40
2019-03-04T01:24:46.505Z,44.13
2019-03-04T01:27:20.927Z,43.45
2019-03-04T01:29:55.137Z,45.38
2019-03-04T01:32:29.436Z,44.93
2019-03-04T01:35:04.019Z,44.45
2019-03-04T01:37:38.476Z,44.95
2019-03-04T01:40:14.979Z,44.10
2019-03-04T01:42:49.419Z,44.23
2019-03-04T01:45:23.505Z,45.28
2019-03-04T01:47:58.225Z,45.30
2019-03-04T01:50:32.469Z,45.80
2019-03-04T01:53:06.852Z,46.28
2019-03-04T01:55:41.147Z,44.53
2019-03-04T01:58:16.506Z,46.08
2019-03-04T02:00:51.797Z,46.20
2019-03-04T02:03:26.007Z,46.73
2019-03-04T02:06:00.996Z,48.50
2019-03-04T02:08:35.067Z,44.90
2019-03-04T02:11:11.140Z,45.85
2019-03-04T02:13:45.326Z,45.20
2019-03-04T02:16:19.721Z,45.80
2019-03-04T02:18:53.939Z,45.12
2019-03-04T02:21:28.375Z,45.52
2019-03-04T02:24:36.970Z,46.30
2019-03-04T02:27:11.291Z,45.52
2019-03-04T02:29:45.375Z,46.55
2019-03-04T02:32:19.638Z,45.55
2019-03-04T02:34:53.631Z,44.40
2019-03-04T02:37:29.897Z,45.67
2019-03-04T02:40:04.286Z,45.08
2019-03-04T02:42:38.431Z,45.45
2019-03-04T02:45:14.595Z,45.08
2019-03-04T02:47:50.150Z,45.05
2019-03-04T02:50:24.381Z,44.30
2019-03-04T02:52:59.919Z,44.67
2019-03-04T02:55:35.288Z,46.58
2019-03-04T02:58:09.568Z,46.92
2019-03-04T03:00:44.294Z,46.00
2019-03-04T03:03:16.701Z,47.40
2019-03-04T03:05:50.888Z,47.43
2019-03-04T03:08:25.125Z,48.35
2019-03-04T03:10:59.703Z,55.17
2019-03-04T03:13:34.009Z,55.20
2019-03-04T03:16:08.603Z,52.90
2019-03-04T03:18:42.685Z,52.65
2019-03-04T03:21:17.847Z,52.75
2019-03-04T03:23:51.937Z,53.42
2019-03-04T03:26:26.184Z,51.58
2019-03-04T03:29:00.159Z,53.55
2019-03-04T03:31:35.411Z,52.65
2019-03-04T03:34:09.645Z,53.38
2019-03-04T03:36:43.932Z,52.48
2019-03-04T03:39:18.042Z,53.15
2019-03-04T03:41:52.200Z,52.98
2019-03-04T03:44:26.632Z,54.60
2019-03-04T03:47:00.772Z,51.95
2019-03-04T03:49:35.160Z,57.38
2019-03-04T03:52:09.421Z,56.58
2019-03-04T03:54:43.735Z,55.23
2019-03-04T03:57:17.960Z,55.03
2019-03-04T03:59:52.350Z,55.35
2019-03-04T04:02:26.345Z,58.23
2019-03-04T04:05:01.045Z,57.40
2019-03-04T04:07:35.140Z,60.12
2019-03-04T04:10:11.156Z,60.23
2019-03-04T04:12:45.369Z,63.98
2019-03-04T04:15:20.009Z,62.55
2019-03-04T04:17:54.163Z,69.42
2019-03-04T04:20:28.493Z,63.73
2019-03-04T04:23:02.546Z,67.65
2019-03-04T04:25:36.599Z,63.65
2019-03-04T04:28:11.105Z,64.53
2019-03-04T04:30:45.322Z,69.45
2019-03-04T04:33:20.281Z,67.85
2019-03-04T04:35:54.874Z,71.87
2019-03-04T04:38:29.193Z,71.77
2019-03-04T04:41:03.520Z,69.65
2019-03-04T04:43:38.692Z,72.90
2019-03-04T04:46:12.979Z,71.02
2019-03-04T04:48:46.975Z,71.67
2019-03-04T04:51:21.206Z,78.00
2019-03-04T04:53:55.459Z,81.75
2019-03-04T04:56:29.897Z,81.78
2019-03-04T04:59:04.294Z,82.55
2019-03-04T05:01:38.714Z,80.40
2019-03-04T05:04:13.180Z,81.57
2019-03-04T05:06:47.590Z,80.55
2019-03-04T05:09:21.914Z,83.12
2019-03-04T05:11:55.977Z,77.95
2019-03-04T05:14:30.119Z,78.37
2019-03-04T05:17:04.667Z,78.57
2019-03-04T05:19:38.945Z,77.62
2019-03-04T05:22:13.305Z,78.02
2019-03-04T05:24:48.469Z,78.07
2019-03-04T05:27:22.871Z,76.50
2019-03-04T05:29:58.189Z,77.40
2019-03-04T05:32:32.234Z,77.60
2019-03-04T05:35:07.084Z,76.22
2019-03-04T05:37:41.453Z,80.53
2019-03-04T05:40:17.689Z,78.20
2019-03-04T05:42:51.976Z,79.20
2019-03-04T05:45:26.085Z,77.47
2019-03-04T05:48:00.354Z,77.35
2019-03-04T05:50:37.611Z,76.85
2019-03-04T05:53:11.750Z,76.15
2019-03-04T05:55:46.187Z,76.45
2019-03-04T05:58:20.271Z,74.70
2019-03-04T06:01:20.925Z,74.53
2019-03-04T06:03:56.170Z,73.90
2019-03-04T06:06:55.803Z,74.32
2019-03-04T06:09:31.165Z,72.95
2019-03-04T06:12:05.439Z,76.37
2019-03-04T06:14:39.839Z,76.30
2019-03-04T06:17:15.095Z,78.85
2019-03-04T06:19:49.109Z,77.25
2019-03-04T06:22:23.256Z,74.40
2019-03-04T06:24:58.394Z,76.33
2019-03-04T06:27:33.509Z,77.03
2019-03-04T06:30:08.520Z,74.22
2019-03-04T06:32:42.842Z,76.82
2019-03-04T06:35:17.145Z,77.00
2019-03-04T06:37:51.951Z,79.53
2019-03-04T06:40:26.535Z,77.08
2019-03-04T06:43:00.528Z,78.17
2019-03-04T06:45:34.638Z,78.25
2019-03-04T06:48:08.824Z,79.58
2019-03-04T06:50:53.722Z,83.03
2019-03-04T06:53:39.426Z,82.65
2019-03-04T06:56:59.868Z,81.78
2019-03-04T07:00:08.533Z,82.75
2019-03-04T07:02:42.876Z,80.95
2019-03-04T07:05:53.919Z,81.10
2019-03-04T07:09:11.471Z,82.60
2019-03-04T07:11:48.319Z,82.15
2019-03-04T07:14:22.383Z,80.42
2019-03-04T07:16:57.000Z,77.32
2019-03-04T07:19:39.292Z,77.62
2019-03-04T07:22:14.567Z,77.53
2019-03-04T07:24:48.830Z,76.25
2019-03-04T07:27:23.202Z,75.65
2019-03-04T07:29:57.613Z,74.40
2019-03-04T07:32:33.059Z,75.10
2019-03-04T07:35:07.308Z,74.30
2019-03-04T07:37:41.588Z,75.62
2019-03-04T07:40:16.994Z,77.32
2019-03-04T07:42:51.150Z,75.40
2019-03-04T07:45:25.453Z,74.92
2019-03-04T07:48:00.329Z,74.92
2019-03-04T07:50:35.463Z,75.32
2019-03-04T07:53:09.744Z,73.37
2019-03-04T07:55:44.212Z,74.97
2019-03-04T07:58:18.662Z,72.75
2019-03-04T08:00:53.928Z,71.53
2019-03-04T08:03:28.247Z,71.42
2019-03-04T08:06:04.167Z,69.92
2019-03-04T08:08:40.356Z,68.85
2019-03-04T08:11:48.672Z,69.70
2019-03-04T08:14:23.110Z,66.70
2019-03-04T08:16:57.595Z,65.95
2019-03-04T08:19:31.799Z,67.65
2019-03-04T08:22:06.563Z,65.22
2019-03-04T08:24:40.881Z,64.35
2019-03-04T08:27:15.017Z,63.52
2019-03-04T08:29:49.260Z,66.12
2019-03-04T08:32:24.773Z,63.25
2019-03-04T08:34:58.915Z,63.80
2019-03-04T08:37:33.300Z,62.17
2019-03-04T08:40:07.882Z,61.65
2019-03-04T08:42:44.127Z,60.65
2019-03-04T08:45:24.228Z,60.52
2019-03-04T08:48:00.506Z,59.42
2019-03-04T08:50:34.742Z,57.00
2019-03-04T08:53:08.940Z,57.35
2019-03-04T08:55:45.274Z,56.63
2019-03-04T08:58:19.495Z,56.95
2019-03-04T09:00:54.828Z,56.75
2019-03-04T09:03:31.113Z,57.00
2019-03-04T09:06:06.462Z,54.77
2019-03-04T09:08:41.734Z,54.90
2019-03-04T09:11:16.959Z,54.23
2019-03-04T09:13:53.642Z,53.55
2019-03-04T09:16:27.779Z,53.40
2019-03-04T09:19:02.498Z,53.15
2019-03-04T09:21:36.434Z,52.55
2019-03-04T09:24:10.794Z,52.13
2019-03-04T09:26:45.023Z,53.30
2019-03-04T09:29:19.461Z,50.88
2019-03-04T09:31:53.760Z,52.40
2019-03-04T09:34:28.150Z,50.55
2019-03-04T09:37:03.491Z,52.08
2019-03-04T09:39:37.545Z,49.05
2019-03-04T09:42:29.282Z,48.48
2019-03-04T09:45:03.491Z,51.83
2019-03-04T09:47:37.760Z,49.05
2019-03-04T09:50:16.463Z,50.65
2019-03-04T09:52:50.649Z,48.98
2019-03-04T09:55:25.024Z,47.43
2019-03-04T09:57:59.072Z,49.95
2019-03-04T10:00:54.338Z,49.00
2019-03-04T10:04:06.884Z,48.63
2019-03-04T10:07:14.653Z,46.92
2019-03-04T10:10:40.491Z,47.43
2019-03-04T10:13:44.370Z,48.68
2019-03-04T10:16:41.205Z,47.08
2019-03-04T10:19:43.952Z,46.85
2019-03-04T10:22:36.917Z,46.75
2019-03-04T10:28:42.784Z,47.62
2019-03-04T10:31:57.855Z,46.25
2019-03-04T10:35:24.227Z,44.88
2019-03-04T10:38:49.640Z,45.92
2019-03-04T10:41:45.885Z,44.23
2019-03-04T10:44:38.481Z,44.60
2019-03-04T10:47:12.665Z,43.83
2019-03-04T10:49:46.791Z,43.65
2019-03-04T10:52:21.200Z,42.45
2019-03-04T10:54:55.271Z,43.40
2019-03-04T10:57:29.461Z,44.42
2019-03-04T11:00:03.821Z,44.70
2019-03-04T11:02:39.449Z,43.98
2019-03-04T11:05:31.845Z,43.28
2019-03-04T11:08:06.083Z,42.53
2019-03-04T11:10:41.822Z,42.95
2019-03-04T11:13:15.934Z,42.85
2019-03-04T11:15:50.048Z,42.85
2019-03-04T11:18:24.330Z,42.50
2019-03-04T11:20:58.577Z,43.68
2019-03-04T11:23:33.703Z,41.70
2019-03-04T11:26:07.700Z,42.23
2019-03-04T11:28:42.083Z,42.70
2019-03-04T11:31:16.199Z,42.08
2019-03-04T11:33:51.317Z,42.13
2019-03-04T11:36:25.641Z,41.35
2019-03-04T11:39:43.585Z,39.85
2019-03-04T11:42:18.270Z,40.05
2019-03-04T11:44:52.622Z,40.38
2019-03-04T11:47:28.144Z,41.15
2019-03-04T11:50:02.388Z,40.05
2019-03-04T11:52:37.230Z,40.03
2019-03-04T11:55:12.135Z,40.08
2019-03-04T11:57:46.583Z,39.50
2019-03-04T12:00:29.247Z,39.27
2019-03-04T12:03:03.376Z,39.27
2019-03-04T12:05:37.671Z,39.33
2019-03-04T12:08:11.984Z,39.78
2019-03-04T12:10:46.436Z,39.15
2019-03-04T12:13:20.659Z,38.98
2019-03-04T12:15:54.788Z,38.60
2019-03-04T12:18:29.219Z,39.08
2019-03-04T12:21:03.504Z,38.38
2019-03-04T12:23:38.258Z,39.67
2019-03-04T12:26:12.990Z,37.73
2019-03-04T12:28:47.038Z,38.30
2019-03-04T12:31:23.407Z,38.78
2019-03-04T12:33:57.758Z,38.40
2019-03-04T12:36:32.212Z,38.58
2019-03-04T12:39:07.498Z,38.53
2019-03-04T12:41:43.566Z,39.15
2019-03-04T12:44:17.865Z,38.58
2019-03-04T12:46:52.389Z,37.95
2019-03-04T12:49:26.667Z,37.88
2019-03-04T12:52:01.511Z,37.30
2019-03-04T12:54:35.680Z,37.50
2019-03-04T12:57:10.369Z,38.53
2019-03-04T12:59:44.517Z,37.88
2019-03-04T13:02:18.784Z,37.48
2019-03-04T13:04:53.032Z,37.83
2019-03-04T13:07:27.447Z,36.77
2019-03-04T13:10:01.875Z,36.90
2019-03-04T13:12:36.079Z,37.90
2019-03-04T13:15:13.377Z,36.73
2019-03-04T13:17:48.059Z,37.23
2019-03-04T13:20:22.592Z,37.35
2019-03-04T13:22:57.057Z,36.25
2019-03-04T13:25:31.173Z,36.38
2019-03-04T13:28:08.583Z,36.63
2019-03-04T13:30:42.339Z,37.15
2019-03-04T13:33:16.967Z,37.55
2019-03-04T13:35:54.275Z,36.48
2019-03-04T13:38:28.601Z,37.23
2019-03-04T13:41:03.436Z,36.98
2019-03-04T13:43:38.565Z,43.78
2019-03-04T13:46:14.622Z,38.45
2019-03-04T13:48:48.984Z,43.45
2019-03-04T13:51:24.466Z,39.83
2019-03-04T13:53:58.913Z,41.10
2019-03-04T13:56:33.558Z,41.90
2019-03-04T13:59:08.718Z,43.17
2019-03-04T14:01:43.365Z,42.75
2019-03-04T14:04:17.579Z,39.83
2019-03-04T14:06:53.539Z,40.20
2019-03-04T14:09:27.891Z,41.13
2019-03-04T14:12:02.089Z,40.23
2019-03-04T14:14:36.198Z,43.00
2019-03-04T14:17:11.235Z,38.40
2019-03-04T14:19:45.260Z,39.42
2019-03-04T14:22:20.597Z,40.65
2019-03-04T14:24:54.811Z,42.73
2019-03-04T14:27:30.127Z,48.00
2019-03-04T14:30:04.509Z,47.45
2019-03-04T14:32:39.824Z,43.70
2019-03-04T14:35:14.221Z,48.85
2019-03-04T14:37:49.834Z,47.03
2019-03-04T14:40:26.014Z,43.38
2019-03-04T14:43:00.145Z,43.20
2019-03-04T14:45:35.931Z,40.33
2019-03-04T14:48:10.988Z,44.18
2019-03-04T14:50:45.115Z,42.40
2019-03-04T14:53:19.360Z,44.70
2019-03-04T14:55:53.607Z,45.28
2019-03-04T14:58:28.117Z,45.48
2019-03-04T15:01:02.400Z,45.73
2019-03-04T15:03:37.474Z,46.13
2019-03-04T15:06:11.939Z,47.05
2019-03-04T15:08:46.236Z,46.23
2019-03-04T15:11:20.496Z,46.30
2019-03-04T15:13:54.697Z,46.25
2019-03-04T15:16:29.049Z,48.08
2019-03-04T15:19:03.446Z,48.78
2019-03-04T15:21:38.852Z,50.78
2019-03-04T15:24:12.906Z,51.42
2019-03-04T15:26:47.569Z,53.15
2019-03-04T15:29:24.221Z,53.20
2019-03-04T15:31:58.430Z,55.35
2019-03-04T15:34:32.547Z,54.48
2019-03-04T15:37:06.837Z,55.58
2019-03-04T15:39:40.859Z,54.33
2019-03-04T15:42:15.077Z,57.62
2019-03-04T15:44:49.301Z,57.90
2019-03-04T15:47:23.641Z,55.67
2019-03-04T15:49:58.898Z,55.83
2019-03-04T15:52:34.176Z,55.20
2019-03-04T15:55:08.556Z,56.83
2019-03-04T15:57:45.032Z,57.10
2019-03-04T16:00:19.917Z,55.38
2019-03-04T16:02:54.221Z,57.58
2019-03-04T16:05:29.047Z,57.85
2019-03-04T16:08:07.521Z,57.48
2019-03-04T16:10:39.295Z,57.15
2019-03-04T16:13:13.449Z,56.95
2019-03-04T16:15:48.427Z,56.68
2019-03-04T16:18:22.712Z,57.88
2019-03-04T16:20:57.547Z,57.23
2019-03-04T16:23:32.901Z,56.30
2019-03-04T16:26:14.083Z,55.95
2019-03-04T16:28:50.063Z,55.43
2019-03-04T16:31:24.533Z,56.20
2019-03-04T16:33:58.759Z,56.50
2019-03-04T16:36:32.969Z,55.12
2019-03-04T16:39:07.998Z,57.93
2019-03-04T16:41:43.231Z,56.90
2019-03-04T16:44:18.465Z,54.20
2019-03-04T16:46:52.645Z,54.93
2019-03-04T16:49:26.829Z,55.60
2019-03-04T16:52:01.080Z,54.65
2019-03-04T16:54:35.271Z,53.48
2019-03-04T16:57:16.164Z,54.25
2019-03-04T16:59:50.888Z,53.63
2019-03-04T17:02:25.072Z,54.35
2019-03-04T17:04:59.157Z,53.58
2019-03-04T17:07:33.472Z,52.75
2019-03-04T17:10:08.323Z,52.48
2019-03-04T17:12:42.821Z,51.55
2019-03-04T17:15:19.389Z,50.75
2019-03-04T17:17:53.983Z,53.28
2019-03-04T17:20:28.356Z,52.43
2019-03-04T17:23:02.713Z,52.33
2019-03-04T17:25:36.940Z,51.30
2019-03-04T17:28:13.255Z,50.85
2019-03-04T17:30:47.798Z,51.10
2019-03-04T17:33:22.140Z,51.00
2019-03-04T17:35:56.384Z,50.45
2019-03-04T17:38:31.043Z,49.30
2019-03-04T17:41:05.313Z,50.15
2019-03-04T17:43:39.324Z,49.95
2019-03-04T17:46:13.743Z,49.48
2019-03-04T17:48:48.055Z,50.30
2019-03-04T17:51:22.270Z,48.58
2019-03-04T17:53:56.536Z,49.42
2019-03-04T17:56:31.652Z,47.73
2019-03-04T17:59:06.042Z,47.58
2019-03-04T18:01:40.380Z,47.70
2019-03-04T18:04:14.906Z,48.38
2019-03-04T18:06:49.285Z,47.48
2019-03-04T18:09:25.424Z,47.65
2019-03-04T18:11:59.717Z,48.40
2019-03-04T18:14:34.979Z,45.98
2019-03-04T18:17:10.346Z,46.63
2019-03-04T18:19:44.605Z,51.65
2019-03-04T18:22:18.921Z,50.35
2019-03-04T18:24:53.318Z,49.20
2019-03-04T18:27:47.822Z,47.10
2019-03-04T18:30:37.968Z,46.70
2019-03-04T18:33:31.901Z,47.20
2019-03-04T18:39:39.855Z,47.15
2019-03-04T18:42:56.788Z,46.05
2019-03-04T18:46:10.898Z,45.98
2019-03-04T18:49:01.669Z,43.40
2019-03-04T18:51:37.372Z,41.90
2019-03-04T18:54:14.427Z,43.00
2019-03-04T18:56:49.058Z,43.20
2019-03-04T18:59:24.484Z,41.20
2019-03-04T19:01:59.024Z,39.65
2019-03-04T19:04:33.161Z,39.10
2019-03-04T19:07:07.817Z,39.27
2019-03-04T19:09:43.295Z,39.27
2019-03-04T19:12:17.746Z,39.75
2019-03-04T19:14:52.298Z,37.60
2019-03-04T19:17:33.322Z,39.03
2019-03-04T19:20:02.686Z,38.67
2019-03-04T19:22:38.117Z,36.70
2019-03-04T19:25:12.540Z,37.40
2019-03-04T19:27:46.809Z,38.15
2019-03-04T19:30:21.078Z,37.58
2019-03-04T19:32:55.581Z,37.95
2019-03-04T19:35:30.592Z,35.73
2019-03-04T19:38:05.093Z,36.30
2019-03-04T19:40:39.381Z,36.50
2019-03-04T19:43:13.819Z,36.10
2019-03-04T19:45:48.684Z,36.60
2019-03-04T19:48:25.356Z,34.85
2019-03-04T19:50:59.289Z,35.88
2019-03-04T19:53:33.842Z,37.42
2019-03-04T19:56:09.252Z,36.80
2019-03-04T19:58:43.760Z,37.45
2019-03-04T20:01:19.173Z,36.58
2019-03-04T20:03:54.826Z,35.45
2019-03-04T20:06:29.168Z,35.98
2019-03-04T20:09:04.579Z,37.58
2019-03-04T20:11:40.271Z,36.85
2019-03-04T20:14:14.660Z,36.20
2019-03-04T20:16:50.481Z,37.53
2019-03-04T20:19:24.577Z,38.80
2019-03-04T20:21:59.874Z,37.45
2019-03-04T20:24:34.449Z,35.83
2019-03-04T20:27:08.793Z,37.50
2019-03-04T20:29:42.954Z,37.13
2019-03-04T20:32:17.139Z,37.05
2019-03-04T20:34:51.628Z,36.28
2019-03-04T20:37:27.451Z,37.00
2019-03-04T20:39:59.806Z,37.38
2019-03-04T20:42:34.170Z,37.70
2019-03-04T20:45:10.329Z,37.28
2019-03-04T20:47:44.824Z,37.80
2019-03-04T20:50:20.784Z,37.88
2019-03-04T20:52:55.181Z,38.42
2019-03-04T20:55:29.815Z,36.38
2019-03-04T20:58:04.175Z,38.15
2019-03-04T21:00:40.072Z,39.30
2019-03-04T21:03:14.322Z,37.42
2019-03-04T21:05:48.375Z,38.00
2019-03-04T21:08:22.717Z,38.15
2019-03-04T21:10:57.417Z,38.90
2019-03-04T21:13:35.759Z,40.38
2019-03-04T21:16:07.830Z,39.30
2019-03-04T21:18:42.344Z,39.13
2019-03-04T21:21:17.655Z,37.83
2019-03-04T21:23:52.412Z,39.65
2019-03-04T21:26:29.480Z,39.90
2019-03-04T21:29:36.319Z,39.03
2019-03-04T21:32:40.921Z,38.40
2019-03-04T21:35:51.520Z,39.75
2019-03-04T21:38:30.071Z,39.48
2019-03-04T21:41:35.446Z,40.23
2019-03-04T21:44:48.212Z,40.58
2019-03-04T21:47:32.178Z,39.58
2019-03-04T21:50:09.017Z,37.78
2019-03-04T21:53:04.764Z,39.33
2019-03-04T21:56:03.722Z,41.65
2019-03-04T21:58:39.167Z,41.58
2019-03-04T22:01:27.081Z,41.53
2019-03-04T22:04:02.591Z,42.50
2019-03-04T22:06:37.321Z,42.25
2019-03-04T22:09:11.987Z,41.85
2019-03-04T22:11:48.531Z,40.03
2019-03-04T22:14:23.055Z,41.70
2019-03-04T22:16:57.357Z,43.48
2019-03-04T22:19:31.807Z,43.10
2019-03-04T22:22:05.920Z,42.10
2019-03-04T22:24:40.678Z,42.40
2019-03-04T22:27:15.017Z,42.17
2019-03-04T22:29:50.321Z,43.15
2019-03-04T22:32:24.308Z,42.83
2019-03-04T22:34:58.597Z,42.30
2019-03-04T22:37:33.816Z,43.80
2019-03-04T22:40:08.884Z,43.87
2019-03-04T22:42:43.265Z,45.05
2019-03-04T22:45:19.054Z,44.25
2019-03-04T22:47:53.671Z,42.27
2019-03-04T22:50:27.991Z,43.17
2019-03-04T22:53:02.697Z,43.80
2019-03-04T22:55:38.738Z,43.87
2019-03-04T22:58:15.039Z,44.65
2019-03-04T23:01:46.429Z,42.45
2019-03-04T23:04:41.231Z,44.45
2019-03-04T23:07:36.096Z,42.45
2019-03-04T23:10:49.156Z,46.20
2019-03-04T23:14:02.587Z,45.10
2019-03-04T23:16:36.841Z,43.63
2019-03-04T23:19:11.263Z,45.70
2019-03-04T23:21:45.550Z,46.25
2019-03-04T23:24:21.053Z,45.80
2019-03-04T23:26:55.281Z,45.90
2019-03-04T23:29:29.433Z,44.80
2019-03-04T23:32:03.583Z,45.08
2019-03-04T23:34:38.742Z,45.10
2019-03-04T23:37:13.013Z,44.60
2019-03-04T23:39:47.271Z,44.50
2019-03-04T23:42:21.640Z,45.78
2019-03-04T23:44:55.821Z,46.33
2019-03-04T23:47:30.276Z,46.37
2019-03-04T23:50:21.721Z,44.18
2019-03-04T23:52:56.308Z,45.92
2019-03-04T23:55:30.464Z,45.35
2019-03-04T23:58:05.675Z,44.90
